Time;durP1;ratioP1;P1;durP2;ratioP2;P2;SDS_P1;SDS_P2;PMS_P1;PMS_P2;Temp;Humidity;BMP_temperature;BMP_pressure;BME280_temperature;BME280_humidity;BME280_pressure;Samples;Min_cycle;Max_cycle;Signal;HPM_P1;HPM_P2
2024/03/17 00:01:05;;;;;;;2.95;2.65;;;;;;;;;;5049185;28;58452;-78
2024/03/17 00:03:30;;;;;;;3.37;2.63;;;;;;;;;;5048703;28;58472;-77
2024/03/17 00:05:57;;;;;;;5.45;2.92;;;;;;;;;;5048080;28;58820;-77
2024/03/17 00:08:22;;;;;;;3.72;2.45;;;;;;;;;;5049057;28;58888;-78
2024/03/17 00:10:49;;;;;;;3.63;2.20;;;;;;;;;;5047343;27;59811;-78
2024/03/17 00:13:14;;;;;;;2.87;2.20;;;;;;;;;;5045843;28;58855;-76
2024/03/17 00:15:39;;;;;;;3.03;2.60;;;;;;;;;;5048117;28;58376;-77
2024/03/17 00:18:05;;;;;;;3.05;2.15;;;;;;;;;;5046394;28;59287;-77
2024/03/17 00:20:32;;;;;;;5.10;1.97;;;;;;;;;;5046966;28;59542;-77
2024/03/17 00:22:57;;;;;;;4.28;2.28;;;;;;;;;;5047381;28;59958;-77
2024/03/17 00:25:22;;;;;;;4.05;3.13;;;;;;;;;;5047041;28;59259;-77
2024/03/17 00:27:49;;;;;;;2.95;1.83;;;;;;;;;;5049414;28;58568;-77
2024/03/17 00:30:15;;;;;;;8.55;2.38;;;;;;;;;;5048800;28;59662;-78
2024/03/17 00:32:40;;;;;;;3.15;2.20;;;;;;;;;;5047150;28;58921;-77
2024/03/17 00:35:06;;;;;;;3.10;2.10;;;;;;;;;;5048730;28;58360;-77
2024/03/17 00:37:32;;;;;;;2.85;1.88;;;;;;;;;;5047628;28;59401;-76
2024/03/17 00:39:58;;;;;;;4.15;2.10;;;;;;;;;;5063243;27;61228;-77
2024/03/17 00:42:23;;;;;;;3.70;2.03;;;;;;;;;;5048708;28;59863;-77
2024/03/17 00:44:48;;;;;;;3.20;1.87;;;;;;;;;;5048212;28;58981;-76
2024/03/17 00:47:14;;;;;;;3.53;2.30;;;;;;;;;;5048904;28;57742;-75
2024/03/17 00:49:39;;;;;;;3.60;1.80;;;;;;;;;;5048060;28;60179;-75
2024/03/17 00:52:05;;;;;;;3.33;2.25;;;;;;;;;;5048402;28;58971;-75
2024/03/17 00:54:30;;;;;;;3.05;2.25;;;;;;;;;;5046315;28;58491;-77
2024/03/17 00:56:56;;;;;;;2.42;1.70;;;;;;;;;;5048082;28;59528;-78
2024/03/17 00:59:21;;;;;;;4.47;2.05;;;;;;;;;;5047166;27;59033;-77
2024/03/17 01:01:46;;;;;;;2.67;1.83;;;;;;;;;;5048568;27;58515;-77
2024/03/17 01:04:11;;;;;;;4.27;1.50;;;;;;;;;;5048763;28;60309;-79
2024/03/17 01:06:40;;;;;;;5.03;2.60;;;;;;;;;;5047664;28;58303;-78
2024/03/17 01:09:05;;;;;;;2.40;1.63;;;;;;;;;;5049576;28;59509;-79
2024/03/17 01:11:31;;;;;;;3.22;2.47;;;;;;;;;;5047692;28;58589;-78
2024/03/17 01:13:56;;;;;;;3.03;2.00;;;;;;;;;;5050365;28;58360;-78
2024/03/17 01:16:22;;;;;;;4.27;1.97;;;;;;;;;;5049458;28;59392;-79
2024/03/17 01:18:48;;;;;;;2.60;1.73;;;;;;;;;;5047254;28;58738;-78
2024/03/17 01:21:13;;;;;;;3.33;1.50;;;;;;;;;;5048840;28;58269;-77
2024/03/17 01:23:38;;;;;;;3.88;1.85;;;;;;;;;;5047028;28;58823;-76
2024/03/17 01:26:04;;;;;;;2.30;1.83;;;;;;;;;;5047311;27;58337;-78
2024/03/17 01:28:29;;;;;;;1.65;1.55;;;;;;;;;;5047130;27;58684;-77
2024/03/17 01:30:54;;;;;;;2.97;1.30;;;;;;;;;;5047157;28;58939;-77
2024/03/17 01:33:20;;;;;;;3.37;2.20;;;;;;;;;;5047386;28;58601;-77
2024/03/17 01:35:45;;;;;;;5.38;2.00;;;;;;;;;;5048385;27;59443;-77
2024/03/17 01:38:11;;;;;;;2.80;1.75;;;;;;;;;;5061140;27;58434;-77
2024/03/17 01:40:36;;;;;;;4.40;1.50;;;;;;;;;;5047116;28;58247;-77
2024/03/17 01:43:02;;;;;;;2.25;1.35;;;;;;;;;;5048127;28;59332;-77
2024/03/17 01:45:31;;;;;;;1.87;1.07;;;;;;;;;;5046184;27;60284;-78
2024/03/17 01:47:57;;;;;;;2.90;1.83;;;;;;;;;;5046683;28;59486;-78
2024/03/17 01:50:24;;;;;;;2.42;1.55;;;;;;;;;;5045505;27;59381;-78
2024/03/17 01:52:51;;;;;;;3.38;1.80;;;;;;;;;;5026915;28;58490;-78
2024/03/17 01:55:16;;;;;;;3.40;1.55;;;;;;;;;;5047850;28;59662;-78
2024/03/17 01:57:42;;;;;;;1.80;1.67;;;;;;;;;;5046010;28;59559;-78
2024/03/17 02:00:08;;;;;;;1.35;1.25;;;;;;;;;;5045571;27;58332;-78
2024/03/17 02:02:33;;;;;;;1.75;1.42;;;;;;;;;;5046745;28;59364;-77
2024/03/17 02:04:59;;;;;;;1.80;1.30;;;;;;;;;;5045246;28;58507;-78
2024/03/17 02:07:24;;;;;;;1.90;1.30;;;;;;;;;;5046937;27;58366;-78
2024/03/17 02:09:49;;;;;;;1.65;1.40;;;;;;;;;;5063108;27;60064;-78
2024/03/17 02:12:15;;;;;;;3.67;1.42;;;;;;;;;;5046513;27;58375;-78
2024/03/17 02:14:40;;;;;;;1.60;1.50;;;;;;;;;;5046985;27;58228;-76
2024/03/17 02:17:05;;;;;;;1.53;1.20;;;;;;;;;;5045148;28;58255;-77
2024/03/17 02:19:30;;;;;;;1.67;1.10;;;;;;;;;;5045227;28;58311;-77
2024/03/17 02:21:56;;;;;;;2.07;1.27;;;;;;;;;;5044841;28;60467;-78
2024/03/17 02:24:21;;;;;;;1.25;1.13;;;;;;;;;;5044228;28;58512;-77
2024/03/17 02:26:47;;;;;;;2.63;1.33;;;;;;;;;;5044413;28;58648;-77
2024/03/17 02:29:12;;;;;;;1.43;1.33;;;;;;;;;;5045141;27;59581;-77
2024/03/17 02:31:37;;;;;;;1.60;1.50;;;;;;;;;;5044546;28;58473;-78
2024/03/17 02:34:02;;;;;;;1.63;1.30;;;;;;;;;;5045408;28;58417;-77
2024/03/17 02:36:27;;;;;;;3.83;1.23;;;;;;;;;;5041500;28;58633;-78
2024/03/17 02:41:36;;;;;;;1.95;1.10;;;;;;;;;;5042194;28;58045;-77
2024/03/17 02:44:01;;;;;;;1.17;1.05;;;;;;;;;;5044416;28;58472;-78
2024/03/17 02:46:27;;;;;;;2.17;1.70;;;;;;;;;;5043823;28;58424;-78
2024/03/17 02:48:53;;;;;;;1.27;1.17;;;;;;;;;;5044812;28;59305;-78
2024/03/17 02:51:19;;;;;;;2.20;0.98;;;;;;;;;;5043824;28;59108;-78
2024/03/17 02:53:44;;;;;;;1.17;1.08;;;;;;;;;;5043811;28;59552;-77
2024/03/17 02:56:10;;;;;;;1.30;0.98;;;;;;;;;;5042177;28;60457;-77
2024/03/17 02:58:36;;;;;;;1.83;1.27;;;;;;;;;;5043950;28;58324;-77
2024/03/17 03:01:01;;;;;;;1.30;0.95;;;;;;;;;;5044842;28;58447;-77
2024/03/17 03:03:27;;;;;;;1.20;1.10;;;;;;;;;;5043352;28;58598;-77
2024/03/17 03:05:52;;;;;;;1.75;1.20;;;;;;;;;;5062156;27;58363;-78
2024/03/17 03:08:17;;;;;;;1.03;0.93;;;;;;;;;;5046309;28;58514;-77
2024/03/17 03:10:44;;;;;;;1.23;1.17;;;;;;;;;;5044194;27;58544;-77
2024/03/17 03:13:09;;;;;;;1.38;0.90;;;;;;;;;;5046463;28;58460;-76
2024/03/17 03:15:34;;;;;;;1.33;1.08;;;;;;;;;;5043385;28;59002;-75
2024/03/17 03:17:59;;;;;;;2.58;1.20;;;;;;;;;;5045174;27;58326;-75
2024/03/17 03:20:24;;;;;;;0.97;0.80;;;;;;;;;;5043472;28;59532;-75
2024/03/17 03:22:49;;;;;;;1.08;0.98;;;;;;;;;;5045940;27;58917;-75
2024/03/17 03:25:14;;;;;;;1.05;0.75;;;;;;;;;;5046983;28;58819;-75
2024/03/17 03:27:40;;;;;;;1.33;0.87;;;;;;;;;;5045387;27;59173;-75
2024/03/17 03:30:06;;;;;;;1.30;1.20;;;;;;;;;;5045083;28;58761;-75
2024/03/17 03:32:32;;;;;;;1.30;0.90;;;;;;;;;;5046348;28;58407;-75
2024/03/17 03:34:57;;;;;;;1.57;0.93;;;;;;;;;;5043641;27;58985;-75
2024/03/17 03:37:22;;;;;;;1.05;0.90;;;;;;;;;;5045989;27;58345;-76
2024/03/17 03:39:47;;;;;;;1.08;0.75;;;;;;;;;;5045562;28;58360;-75
2024/03/17 03:42:12;;;;;;;1.55;0.77;;;;;;;;;;5044990;28;59714;-75
2024/03/17 03:44:38;;;;;;;0.63;0.63;;;;;;;;;;5045212;28;58368;-75
2024/03/17 03:47:03;;;;;;;1.23;1.13;;;;;;;;;;5045770;28;58390;-75
2024/03/17 03:49:29;;;;;;;1.30;0.90;;;;;;;;;;5044219;27;58712;-75
2024/03/17 03:51:54;;;;;;;1.70;0.88;;;;;;;;;;5045610;28;58000;-75
2024/03/17 03:54:19;;;;;;;1.23;0.77;;;;;;;;;;5045734;28;59164;-75
2024/03/17 03:56:44;;;;;;;1.88;0.90;;;;;;;;;;5044531;28;58391;-75
2024/03/17 03:59:10;;;;;;;1.38;0.75;;;;;;;;;;5044517;27;58374;-75
2024/03/17 04:01:35;;;;;;;1.17;0.88;;;;;;;;;;5044279;28;58367;-75
2024/03/17 04:04:00;;;;;;;1.38;0.60;;;;;;;;;;5046249;28;58151;-75
2024/03/17 04:06:26;;;;;;;0.97;0.87;;;;;;;;;;5044324;28;58481;-75
2024/03/17 04:08:51;;;;;;;0.88;0.85;;;;;;;;;;5044309;28;58566;-75
2024/03/17 04:11:16;;;;;;;0.97;0.90;;;;;;;;;;5045212;28;58323;-75
2024/03/17 04:13:41;;;;;;;1.13;0.83;;;;;;;;;;5045380;28;59288;-75
2024/03/17 04:16:07;;;;;;;0.80;0.80;;;;;;;;;;5045337;28;59931;-75
2024/03/17 04:18:34;;;;;;;3.47;0.80;;;;;;;;;;5044690;28;59480;-75
2024/03/17 04:21:01;;;;;;;1.20;0.65;;;;;;;;;;5044716;28;58913;-75
2024/03/17 04:23:26;;;;;;;1.00;0.77;;;;;;;;;;5045036;28;58467;-77
2024/03/17 04:25:52;;;;;;;0.63;0.63;;;;;;;;;;5044600;28;59489;-77
2024/03/17 04:28:17;;;;;;;1.10;1.00;;;;;;;;;;5045653;28;58956;-77
2024/03/17 04:30:43;;;;;;;1.00;0.90;;;;;;;;;;5047918;27;58598;-78
2024/03/17 04:33:08;;;;;;;1.33;0.93;;;;;;;;;;5048648;28;58807;-78
2024/03/17 04:35:37;;;;;;;0.93;0.82;;;;;;;;;;5047535;27;58044;-77
2024/03/17 04:38:02;;;;;;;0.95;0.95;;;;;;;;;;5049218;28;58364;-77
2024/03/17 04:40:27;;;;;;;1.17;0.70;;;;;;;;;;5047903;28;58702;-77
2024/03/17 04:42:53;;;;;;;0.60;0.60;;;;;;;;;;5049382;28;58442;-77
2024/03/17 04:45:18;;;;;;;0.88;0.80;;;;;;;;;;5047943;27;58562;-77
2024/03/17 04:47:43;;;;;;;1.35;0.90;;;;;;;;;;5047020;28;58297;-77
2024/03/17 04:50:08;;;;;;;2.28;1.55;;;;;;;;;;5048198;27;58093;-77
2024/03/17 04:52:33;;;;;;;0.75;0.70;;;;;;;;;;5048386;28;58693;-77
2024/03/17 04:54:59;;;;;;;1.75;0.90;;;;;;;;;;5047978;28;58671;-77
2024/03/17 04:57:24;;;;;;;2.80;0.90;;;;;;;;;;5048220;27;58105;-77
2024/03/17 04:59:49;;;;;;;0.50;0.50;;;;;;;;;;5047122;28;59372;-77
2024/03/17 05:02:14;;;;;;;0.50;0.50;;;;;;;;;;5047815;28;58045;-77
2024/03/17 05:04:39;;;;;;;1.00;0.67;;;;;;;;;;5047741;28;58756;-78
2024/03/17 05:07:04;;;;;;;0.80;0.60;;;;;;;;;;5047633;28;59024;-78
2024/03/17 05:09:30;;;;;;;0.95;0.68;;;;;;;;;;5046249;27;58281;-77
2024/03/17 05:11:55;;;;;;;0.50;0.47;;;;;;;;;;5048071;28;58337;-78
2024/03/17 05:14:20;;;;;;;1.27;0.70;;;;;;;;;;5048172;28;58651;-78
2024/03/17 05:16:47;;;;;;;1.23;0.93;;;;;;;;;;5046787;28;58370;-77
2024/03/17 05:19:12;;;;;;;0.97;0.70;;;;;;;;;;5048394;28;59329;-78
2024/03/17 05:21:38;;;;;;;1.27;0.63;;;;;;;;;;5046163;28;60106;-77
2024/03/17 05:24:03;;;;;;;2.10;0.85;;;;;;;;;;5048252;28;58548;-78
2024/03/17 05:26:29;;;;;;;1.37;0.60;;;;;;;;;;5046161;27;59138;-77
2024/03/17 05:28:54;;;;;;;0.70;0.70;;;;;;;;;;5047294;28;58542;-78
2024/03/17 05:31:21;;;;;;;0.77;0.55;;;;;;;;;;5047464;28;58480;-78
2024/03/17 05:33:46;;;;;;;0.80;0.63;;;;;;;;;;5047734;28;58390;-75
2024/03/17 05:36:11;;;;;;;0.77;0.77;;;;;;;;;;5046501;28;58625;-76
2024/03/17 05:38:37;;;;;;;0.75;0.52;;;;;;;;;;5047133;28;59150;-75
2024/03/17 05:41:03;;;;;;;0.60;0.60;;;;;;;;;;5046253;28;58215;-75
2024/03/17 05:43:28;;;;;;;1.13;0.75;;;;;;;;;;5047341;27;59297;-75
2024/03/17 05:45:54;;;;;;;0.70;0.70;;;;;;;;;;5046620;28;58589;-75
2024/03/17 05:48:20;;;;;;;0.43;0.40;;;;;;;;;;5045995;28;58546;-75
2024/03/17 05:50:45;;;;;;;1.05;0.95;;;;;;;;;;5046439;27;59505;-75
2024/03/17 05:53:10;;;;;;;1.20;0.80;;;;;;;;;;5047113;28;58853;-75
2024/03/17 05:55:36;;;;;;;0.90;0.80;;;;;;;;;;5046394;28;58072;-75
2024/03/17 05:58:02;;;;;;;1.23;0.70;;;;;;;;;;5047082;28;59628;-75
2024/03/17 06:00:27;;;;;;;1.87;0.67;;;;;;;;;;5045555;28;58577;-75
2024/03/17 06:02:52;;;;;;;1.15;0.60;;;;;;;;;;5046994;27;58380;-75
2024/03/17 06:05:17;;;;;;;0.60;0.50;;;;;;;;;;5046993;27;58533;-75
2024/03/17 06:07:42;;;;;;;0.82;0.77;;;;;;;;;;5045318;27;58462;-75
2024/03/17 06:10:08;;;;;;;0.77;0.67;;;;;;;;;;5042735;28;59232;-75
2024/03/17 06:12:33;;;;;;;1.23;0.67;;;;;;;;;;5044140;28;58620;-76
2024/03/17 06:14:59;;;;;;;1.70;0.90;;;;;;;;;;5045974;28;58542;-75
2024/03/17 06:17:24;;;;;;;0.90;0.80;;;;;;;;;;5046210;28;59509;-75
2024/03/17 06:19:49;;;;;;;0.77;0.77;;;;;;;;;;5045096;28;58995;-75
2024/03/17 06:22:14;;;;;;;1.08;1.02;;;;;;;;;;5047601;28;58420;-76
2024/03/17 06:24:40;;;;;;;1.65;0.63;;;;;;;;;;5044977;28;59107;-75
2024/03/17 06:27:05;;;;;;;1.30;0.50;;;;;;;;;;5046248;28;58566;-75
2024/03/17 06:29:32;;;;;;;0.65;0.65;;;;;;;;;;5046823;27;58725;-75
2024/03/17 06:31:57;;;;;;;1.00;0.70;;;;;;;;;;5045422;28;59012;-75
2024/03/17 06:34:22;;;;;;;1.17;0.70;;;;;;;;;;5046935;28;57805;-75
2024/03/17 06:36:48;;;;;;;1.02;0.50;;;;;;;;;;5047318;28;58525;-75
2024/03/17 06:39:15;;;;;;;0.65;0.50;;;;;;;;;;5045360;28;59299;-75
2024/03/17 06:41:40;;;;;;;0.83;0.77;;;;;;;;;;5045384;28;58625;-75
2024/03/17 06:44:06;;;;;;;1.38;1.25;;;;;;;;;;5046658;28;59101;-78
2024/03/17 06:46:31;;;;;;;0.90;0.60;;;;;;;;;;5044905;28;58294;-77
2024/03/17 06:48:59;;;;;;;0.50;0.50;;;;;;;;;;5048066;28;58371;-78
2024/03/17 06:51:24;;;;;;;0.65;0.50;;;;;;;;;;5045554;28;59000;-77
2024/03/17 06:53:49;;;;;;;1.10;0.60;;;;;;;;;;5046156;27;58212;-75
2024/03/17 06:56:14;;;;;;;0.68;0.45;;;;;;;;;;5045806;28;58366;-75
2024/03/17 06:58:40;;;;;;;0.87;0.80;;;;;;;;;;5043832;28;58559;-75
2024/03/17 07:01:05;;;;;;;0.67;0.47;;;;;;;;;;5045304;28;58416;-75
2024/03/17 07:03:30;;;;;;;1.40;1.03;;;;;;;;;;5048149;27;58382;-75
2024/03/17 07:05:57;;;;;;;0.30;0.30;;;;;;;;;;5043592;28;58665;-75
2024/03/17 07:08:22;;;;;;;1.00;0.60;;;;;;;;;;5045630;28;58798;-75
2024/03/17 07:10:57;;;;;;;1.00;0.70;;;;;;;;;;5044048;27;58547;-76
2024/03/17 07:13:23;;;;;;;1.20;0.57;;;;;;;;;;5046685;28;58406;-76
2024/03/17 07:15:48;;;;;;;0.80;0.60;;;;;;;;;;5043547;28;59418;-75
2024/03/17 07:18:13;;;;;;;0.77;0.60;;;;;;;;;;5042580;28;59755;-75
2024/03/17 07:20:39;;;;;;;1.03;0.87;;;;;;;;;;5044217;28;58312;-75
2024/03/17 07:23:04;;;;;;;0.90;0.70;;;;;;;;;;5044817;28;59357;-75
2024/03/17 07:25:29;;;;;;;0.60;0.57;;;;;;;;;;5044783;28;58831;-75
2024/03/17 07:27:54;;;;;;;1.83;0.73;;;;;;;;;;5044968;28;58383;-75
2024/03/17 07:30:19;;;;;;;2.28;0.45;;;;;;;;;;5044247;27;59168;-75
2024/03/17 07:32:45;;;;;;;0.68;0.52;;;;;;;;;;5045725;28;58178;-75
2024/03/17 07:35:10;;;;;;;0.60;0.60;;;;;;;;;;5046018;28;59289;-75
2024/03/17 07:37:35;;;;;;;2.33;0.93;;;;;;;;;;5042993;28;58765;-75
2024/03/17 07:40:00;;;;;;;1.30;0.50;;;;;;;;;;5045101;28;58227;-75
2024/03/17 07:42:26;;;;;;;2.53;0.70;;;;;;;;;;5043903;28;59379;-75
2024/03/17 07:44:51;;;;;;;0.50;0.50;;;;;;;;;;5042032;28;59777;-75
2024/03/17 07:47:16;;;;;;;0.40;0.40;;;;;;;;;;5044253;27;58543;-75
2024/03/17 07:49:41;;;;;;;0.82;0.82;;;;;;;;;;5043962;27;59178;-75
2024/03/17 07:52:06;;;;;;;0.33;0.33;;;;;;;;;;5045843;28;58265;-75
2024/03/17 07:54:31;;;;;;;2.07;0.83;;;;;;;;;;5044176;28;59194;-78
2024/03/17 07:56:57;;;;;;;1.17;0.47;;;;;;;;;;5043218;28;58571;-78
2024/03/17 07:59:22;;;;;;;0.95;0.60;;;;;;;;;;5043437;27;58144;-77
2024/03/17 08:01:47;;;;;;;0.50;0.50;;;;;;;;;;5045684;28;58502;-77
2024/03/17 08:04:12;;;;;;;17.35;1.35;;;;;;;;;;5047287;28;58875;-75
2024/03/17 08:06:38;;;;;;;1.03;0.50;;;;;;;;;;5046841;28;58400;-76
2024/03/17 08:09:04;;;;;;;0.50;0.32;;;;;;;;;;5047376;28;59328;-75
2024/03/17 08:11:30;;;;;;;0.40;0.40;;;;;;;;;;5048284;27;58273;-75
2024/03/17 08:13:55;;;;;;;0.70;0.50;;;;;;;;;;5048216;27;59566;-76
2024/03/17 08:16:20;;;;;;;1.40;0.50;;;;;;;;;;5047650;27;60093;-77
2024/03/17 08:18:46;;;;;;;0.60;0.60;;;;;;;;;;5047908;28;58366;-74
2024/03/17 08:21:11;;;;;;;1.80;0.70;;;;;;;;;;5047471;28;59303;-75
2024/03/17 08:23:41;;;;;;;0.65;0.60;;;;;;;;;;5046514;27;58201;-76
2024/03/17 08:26:06;;;;;;;2.22;0.63;;;;;;;;;;5047559;28;58308;-76
2024/03/17 08:28:31;;;;;;;1.60;0.60;;;;;;;;;;5047636;28;58664;-76
2024/03/17 08:30:58;;;;;;;0.70;0.65;;;;;;;;;;5048274;28;57832;-76
2024/03/17 08:33:24;;;;;;;1.17;0.95;;;;;;;;;;5049305;27;58371;-76
2024/03/17 08:35:56;;;;;;;0.80;0.52;;;;;;;;;;5049433;27;57861;-76
2024/03/17 08:38:23;;;;;;;1.10;0.50;;;;;;;;;;5048546;28;58570;-76
2024/03/17 08:40:49;;;;;;;0.70;0.52;;;;;;;;;;5049687;27;59483;-76
2024/03/17 08:43:14;;;;;;;1.30;0.90;;;;;;;;;;5063780;27;59425;-76
2024/03/17 08:45:39;;;;;;;2.37;0.70;;;;;;;;;;5049468;27;58339;-77
2024/03/17 08:48:04;;;;;;;0.98;0.45;;;;;;;;;;5048373;28;58487;-76
2024/03/17 08:50:33;;;;;;;3.20;0.40;;;;;;;;;;5047747;27;58520;-76
2024/03/17 08:52:58;;;;;;;1.95;1.13;;;;;;;;;;5046863;27;58492;-76
2024/03/17 08:55:23;;;;;;;13.77;1.83;;;;;;;;;;5047918;28;58601;-76
2024/03/17 08:57:48;;;;;;;1.00;0.50;;;;;;;;;;5048402;28;58466;-77
2024/03/17 09:00:14;;;;;;;2.13;0.88;;;;;;;;;;5046523;28;58397;-77
2024/03/17 09:02:41;;;;;;;2.58;0.85;;;;;;;;;;5046821;27;58511;-77
2024/03/17 09:05:06;;;;;;;1.13;0.65;;;;;;;;;;5047245;28;58665;-76
2024/03/17 09:07:32;;;;;;;2.07;1.07;;;;;;;;;;5047890;27;59826;-76
2024/03/17 09:09:57;;;;;;;0.90;0.38;;;;;;;;;;5047496;28;58997;-76
2024/03/17 09:12:22;;;;;;;1.80;0.43;;;;;;;;;;5046692;28;58590;-76
2024/03/17 09:14:47;;;;;;;0.52;0.28;;;;;;;;;;5046100;27;59300;-76
2024/03/17 09:17:13;;;;;;;1.10;0.40;;;;;;;;;;5048160;28;58862;-77
2024/03/17 09:19:38;;;;;;;4.03;0.82;;;;;;;;;;5046361;28;60124;-77
2024/03/17 09:22:04;;;;;;;2.43;0.73;;;;;;;;;;5048180;27;58432;-77
2024/03/17 09:24:29;;;;;;;1.00;0.55;;;;;;;;;;5046364;28;58404;-77
2024/03/17 09:26:54;;;;;;;1.02;0.70;;;;;;;;;;5045035;28;59177;-76
2024/03/17 09:29:19;;;;;;;0.90;0.50;;;;;;;;;;5046394;28;58447;-76
2024/03/17 09:31:45;;;;;;;3.50;0.83;;;;;;;;;;5045775;27;57886;-77
2024/03/17 09:34:10;;;;;;;4.43;0.40;;;;;;;;;;5045815;28;59488;-77
2024/03/17 09:36:35;;;;;;;0.60;0.57;;;;;;;;;;5044226;28;58900;-76
2024/03/17 09:39:03;;;;;;;0.40;0.30;;;;;;;;;;5045785;28;58491;-76
2024/03/17 09:41:29;;;;;;;0.65;0.40;;;;;;;;;;5044425;28;58933;-77
2024/03/17 09:43:55;;;;;;;1.85;0.50;;;;;;;;;;5046870;28;58493;-76
2024/03/17 09:46:22;;;;;;;1.80;0.40;;;;;;;;;;5048071;28;59197;-77
2024/03/17 09:48:48;;;;;;;1.77;0.88;;;;;;;;;;5046229;28;58635;-76
2024/03/17 09:51:17;;;;;;;2.38;0.43;;;;;;;;;;5046169;28;58506;-76
2024/03/17 09:53:43;;;;;;;1.50;0.68;;;;;;;;;;5046424;28;58545;-76
2024/03/17 09:56:09;;;;;;;1.20;0.57;;;;;;;;;;5044729;27;58775;-77
2024/03/17 09:58:34;;;;;;;2.70;1.00;;;;;;;;;;5047367;28;58357;-74
2024/03/17 10:00:59;;;;;;;1.25;0.80;;;;;;;;;;5047061;28;58728;-75
2024/03/17 10:03:51;;;;;;;1.87;0.80;;;;;;;;;;5047631;27;58556;-74
2024/03/17 10:06:16;;;;;;;0.60;0.52;;;;;;;;;;5046848;27;59836;-75
2024/03/17 10:08:42;;;;;;;1.27;0.43;;;;;;;;;;5045850;27;58879;-74
2024/03/17 10:11:08;;;;;;;0.77;0.52;;;;;;;;;;5048131;28;58451;-76
2024/03/17 10:13:33;;;;;;;3.10;1.05;;;;;;;;;;5045720;28;59487;-76
2024/03/17 10:15:58;;;;;;;3.20;1.02;;;;;;;;;;5047713;28;59711;-76
2024/03/17 10:18:23;;;;;;;2.85;1.00;;;;;;;;;;5047011;28;58228;-76
2024/03/17 10:20:56;;;;;;;1.83;1.00;;;;;;;;;;5046878;28;58331;-76
2024/03/17 10:23:21;;;;;;;2.17;1.10;;;;;;;;;;5046246;28;58521;-77
2024/03/17 10:25:46;;;;;;;4.23;0.43;;;;;;;;;;5045524;28;58347;-76
2024/03/17 10:28:12;;;;;;;2.83;0.50;;;;;;;;;;5045935;28;59057;-76
2024/03/17 10:30:38;;;;;;;4.43;0.80;;;;;;;;;;5045544;28;58297;-76
2024/03/17 10:33:06;;;;;;;2.72;0.90;;;;;;;;;;5046882;28;59387;-76
2024/03/17 10:35:32;;;;;;;2.58;0.55;;;;;;;;;;5045199;27;58903;-77
2024/03/17 10:37:58;;;;;;;3.72;0.40;;;;;;;;;;5045207;28;58472;-76
2024/03/17 10:40:24;;;;;;;2.25;0.73;;;;;;;;;;5045773;28;61173;-77
2024/03/17 10:42:49;;;;;;;2.60;0.93;;;;;;;;;;5062006;27;59300;-76
2024/03/17 10:45:15;;;;;;;1.20;0.65;;;;;;;;;;5047409;28;58356;-76
2024/03/17 10:47:41;;;;;;;3.80;0.82;;;;;;;;;;5045235;28;58937;-76
2024/03/17 10:50:08;;;;;;;1.98;1.02;;;;;;;;;;5046579;28;58455;-76
2024/03/17 10:52:33;;;;;;;2.33;0.77;;;;;;;;;;5045406;28;60013;-76
2024/03/17 10:55:02;;;;;;;3.17;0.63;;;;;;;;;;5045785;28;58367;-77
2024/03/17 10:57:32;;;;;;;5.53;0.70;;;;;;;;;;5045809;27;58380;-76
2024/03/17 10:59:58;;;;;;;0.55;0.55;;;;;;;;;;5046334;27;59390;-76
2024/03/17 11:02:24;;;;;;;1.92;0.80;;;;;;;;;;5044634;27;58920;-76
2024/03/17 11:04:57;;;;;;;3.13;0.65;;;;;;;;;;5046777;28;58949;-76
2024/03/17 11:07:23;;;;;;;1.63;0.60;;;;;;;;;;5044432;27;58467;-77
2024/03/17 11:09:48;;;;;;;3.90;1.08;;;;;;;;;;5046128;28;58462;-76
2024/03/17 11:12:32;;;;;;;6.20;0.85;;;;;;;;;;5045036;28;59073;-74
2024/03/17 11:15:17;;;;;;;1.20;0.70;;;;;;;;;;5045750;27;58795;-74
2024/03/17 11:17:42;;;;;;;2.55;0.55;;;;;;;;;;5045997;27;58694;-75
2024/03/17 11:20:15;;;;;;;1.70;0.60;;;;;;;;;;5045845;28;59423;-75
2024/03/17 11:22:43;;;;;;;6.43;1.13;;;;;;;;;;5044320;27;59110;-77
2024/03/17 11:25:27;;;;;;;4.85;1.30;;;;;;;;;;5043564;28;58472;-79
2024/03/17 11:27:52;;;;;;;4.20;0.88;;;;;;;;;;5044174;28;65039;-77
2024/03/17 11:30:36;;;;;;;3.33;1.13;;;;;;;;;;5042397;28;58364;-77
2024/03/17 11:33:03;;;;;;;5.05;0.85;;;;;;;;;;5044737;27;59340;-77
2024/03/17 11:35:29;;;;;;;1.58;0.77;;;;;;;;;;5043579;27;59660;-77
2024/03/17 11:37:54;;;;;;;3.75;1.48;;;;;;;;;;5045143;28;58233;-79
2024/03/17 11:40:23;;;;;;;7.32;0.98;;;;;;;;;;5048426;27;59415;-80
2024/03/17 11:43:01;;;;;;;3.10;1.27;;;;;;;;;;5049574;28;59707;-78
2024/03/17 11:45:26;;;;;;;1.13;0.50;;;;;;;;;;5049559;27;59713;-76
2024/03/17 11:47:52;;;;;;;3.60;1.52;;;;;;;;;;5048919;28;59266;-77
2024/03/17 11:50:18;;;;;;;5.63;1.23;;;;;;;;;;5047707;27;58465;-79
2024/03/17 11:52:45;;;;;;;2.63;1.48;;;;;;;;;;5048380;27;58394;-77
2024/03/17 11:55:17;;;;;;;2.78;1.45;;;;;;;;;;5048999;28;58543;-78
2024/03/17 11:57:45;;;;;;;2.80;0.95;;;;;;;;;;5027143;27;58307;-78
2024/03/17 12:00:19;;;;;;;2.03;0.90;;;;;;;;;;5044162;28;58993;-79
2024/03/17 12:02:47;;;;;;;4.05;1.40;;;;;;;;;;5046542;28;58932;-78
2024/03/17 12:05:12;;;;;;;;;;;;;;;;;;5047781;28;58669;-75
2024/03/17 12:07:42;;;;;;;3.80;1.45;;;;;;;;;;5045566;28;59511;-74
2024/03/17 12:10:09;;;;;;;4.78;0.85;;;;;;;;;;5046566;28;59001;-75
2024/03/17 12:12:35;;;;;;;4.53;0.88;;;;;;;;;;5047548;28;59482;-76
2024/03/17 12:15:00;;;;;;;1.52;0.80;;;;;;;;;;5048279;27;58959;-75
2024/03/17 12:17:26;;;;;;;2.92;0.85;;;;;;;;;;5048817;27;58401;-74
2024/03/17 12:19:52;;;;;;;1.15;1.05;;;;;;;;;;5049728;28;59374;-75
2024/03/17 12:22:17;;;;;;;2.08;0.50;;;;;;;;;;5051149;28;58947;-73
2024/03/17 12:24:43;;;;;;;1.08;0.88;;;;;;;;;;5050525;28;58406;-75
2024/03/17 12:27:15;;;;;;;1.40;0.60;;;;;;;;;;5050168;28;60338;-75
2024/03/17 12:29:40;;;;;;;1.13;0.60;;;;;;;;;;5048374;27;60271;-75
2024/03/17 12:32:16;;;;;;;1.17;0.82;;;;;;;;;;5047376;27;58337;-74
2024/03/17 12:34:41;;;;;;;1.88;0.77;;;;;;;;;;5048284;28;59115;-75
2024/03/17 12:37:07;;;;;;;2.20;0.77;;;;;;;;;;5048378;28;58346;-76
2024/03/17 12:39:32;;;;;;;1.48;1.05;;;;;;;;;;5048306;28;58342;-76
2024/03/17 12:42:04;;;;;;;1.02;0.75;;;;;;;;;;5047755;28;59836;-76
2024/03/17 12:44:30;;;;;;;2.42;0.50;;;;;;;;;;5046610;28;58397;-76
2024/03/17 12:46:56;;;;;;;1.98;1.27;;;;;;;;;;5048265;28;60424;-75
2024/03/17 12:49:22;;;;;;;3.88;1.40;;;;;;;;;;5047256;28;58992;-76
2024/03/17 12:51:47;;;;;;;1.13;0.90;;;;;;;;;;5048655;28;58444;-76
2024/03/17 12:54:12;;;;;;;4.10;0.93;;;;;;;;;;5048010;27;59305;-75
2024/03/17 13:02:11;;;;;;;1.52;0.50;;;;;;;;;;5045388;27;58416;-76
2024/03/17 13:04:37;;;;;;;1.48;0.50;;;;;;;;;;5046925;28;58487;-75
2024/03/17 13:07:09;;;;;;;1.15;0.60;;;;;;;;;;5045613;28;58541;-76
2024/03/17 13:09:34;;;;;;;1.95;0.80;;;;;;;;;;5046493;28;58534;-75
2024/03/17 13:12:00;;;;;;;1.98;0.70;;;;;;;;;;5047283;28;58293;-76
2024/03/17 13:14:25;;;;;;;1.85;0.90;;;;;;;;;;5047917;28;59576;-76
2024/03/17 13:16:50;;;;;;;2.65;0.82;;;;;;;;;;5047087;28;58745;-76
2024/03/17 13:19:15;;;;;;;2.38;0.40;;;;;;;;;;5047472;28;59486;-76
2024/03/17 13:21:40;;;;;;;0.70;0.50;;;;;;;;;;5047088;27;59059;-76
2024/03/17 13:24:05;;;;;;;2.87;0.93;;;;;;;;;;5045980;28;58191;-75
2024/03/17 13:26:31;;;;;;;1.55;0.50;;;;;;;;;;5046895;28;58383;-76
2024/03/17 13:28:56;;;;;;;1.90;0.60;;;;;;;;;;5043833;28;59413;-76
2024/03/17 13:31:21;;;;;;;0.50;0.50;;;;;;;;;;5048419;27;58509;-76
2024/03/17 13:33:47;;;;;;;0.43;0.40;;;;;;;;;;5047571;28;59234;-76
2024/03/17 13:36:12;;;;;;;1.50;0.40;;;;;;;;;;5046149;28;58863;-76
2024/03/17 13:38:39;;;;;;;0.85;0.38;;;;;;;;;;5047799;27;58288;-75
2024/03/17 13:41:04;;;;;;;0.50;0.50;;;;;;;;;;5046402;28;59009;-75
2024/03/17 13:43:29;;;;;;;1.83;0.30;;;;;;;;;;5046110;28;58241;-75
2024/03/17 13:45:55;;;;;;;0.43;0.40;;;;;;;;;;5048506;28;59066;-76
2024/03/17 13:48:20;;;;;;;1.20;0.50;;;;;;;;;;5044832;28;59045;-76
2024/03/17 13:50:47;;;;;;;0.73;0.53;;;;;;;;;;5047414;27;58420;-75
2024/03/17 13:53:12;;;;;;;0.50;0.30;;;;;;;;;;5043713;28;59598;-75
2024/03/17 13:55:38;;;;;;;1.00;0.47;;;;;;;;;;5045138;28;58779;-75
2024/03/17 13:58:04;;;;;;;0.75;0.30;;;;;;;;;;5046853;28;58655;-75
2024/03/17 14:00:31;;;;;;;0.45;0.30;;;;;;;;;;5044504;28;59000;-80
2024/03/17 14:02:56;;;;;;;0.50;0.50;;;;;;;;;;5047175;28;58371;-78
2024/03/17 14:05:22;;;;;;;2.37;0.50;;;;;;;;;;5046817;28;58727;-77
2024/03/17 14:07:47;;;;;;;2.95;0.80;;;;;;;;;;5044780;27;59195;-77
2024/03/17 14:10:13;;;;;;;5.05;0.47;;;;;;;;;;5047396;28;58506;-77
2024/03/17 14:12:41;;;;;;;2.75;0.98;;;;;;;;;;5046881;28;59684;-77
2024/03/17 14:15:06;;;;;;;;;;;;;;;;;;5045562;28;59157;-78
2024/03/17 14:17:32;;;;;;;2.73;0.60;;;;;;;;;;5047177;28;58530;-78
2024/03/17 14:19:57;;;;;;;0.73;0.57;;;;;;;;;;5046933;28;59588;-77
2024/03/17 14:22:23;;;;;;;5.10;0.93;;;;;;;;;;5046523;27;58463;-79
2024/03/17 14:24:49;;;;;;;2.90;1.02;;;;;;;;;;5046939;28;59168;-80
2024/03/17 14:27:15;;;;;;;1.83;0.55;;;;;;;;;;5045706;28;58928;-80
2024/03/17 14:29:41;;;;;;;1.65;0.65;;;;;;;;;;5045423;28;58464;-79
2024/03/17 14:32:06;;;;;;;2.83;0.70;;;;;;;;;;5046222;28;60326;-81
2024/03/17 14:34:38;;;;;;;1.80;0.75;;;;;;;;;;5045439;28;59039;-80
2024/03/17 14:37:03;;;;;;;6.10;1.90;;;;;;;;;;5046598;28;58419;-80
2024/03/17 14:39:29;;;;;;;2.08;0.60;;;;;;;;;;5045554;28;60408;-79
2024/03/17 14:41:54;;;;;;;2.17;0.60;;;;;;;;;;5046346;27;58770;-79
2024/03/17 14:44:19;;;;;;;0.55;0.40;;;;;;;;;;5045468;27;58889;-79